sensor_id;sensor_type;location;lat;lon;timestamp;temperature;humidity
24326;DHT22;12448;45.532;5.290;2023-06-19T00:02:22;23.70;65.80
24326;DHT22;12448;45.532;5.290;2023-06-19T00:04:47;23.70;65.10
24326;DHT22;12448;45.532;5.290;2023-06-19T00:07:13;23.70;65.20
24326;DHT22;12448;45.532;5.290;2023-06-19T00:09:39;23.70;65.10
24326;DHT22;12448;45.532;5.290;2023-06-19T00:12:05;23.60;65.20
24326;DHT22;12448;45.532;5.290;2023-06-19T00:14:30;23.60;65.50
24326;DHT22;12448;45.532;5.290;2023-06-19T00:16:56;23.60;65.60
24326;DHT22;12448;45.532;5.290;2023-06-19T00:19:22;23.60;65.60
24326;DHT22;12448;45.532;5.290;2023-06-19T00:21:48;23.60;65.70
24326;DHT22;12448;45.532;5.290;2023-06-19T00:24:13;23.60;65.80
24326;DHT22;12448;45.532;5.290;2023-06-19T00:26:39;23.60;65.80
24326;DHT22;12448;45.532;5.290;2023-06-19T00:29:05;23.60;65.80
24326;DHT22;12448;45.532;5.290;2023-06-19T00:31:32;23.60;65.80
24326;DHT22;12448;45.532;5.290;2023-06-19T00:33:58;23.60;65.90
24326;DHT22;12448;45.532;5.290;2023-06-19T00:36:23;23.60;66.00
24326;DHT22;12448;45.532;5.290;2023-06-19T00:38:51;23.60;66.00
24326;DHT22;12448;45.532;5.290;2023-06-19T00:41:17;23.50;66.00
24326;DHT22;12448;45.532;5.290;2023-06-19T00:43:43;23.50;66.00
24326;DHT22;12448;45.532;5.290;2023-06-19T00:46:09;23.50;65.90
24326;DHT22;12448;45.532;5.290;2023-06-19T00:48:36;23.50;65.90
24326;DHT22;12448;45.532;5.290;2023-06-19T00:51:01;23.50;65.90
24326;DHT22;12448;45.532;5.290;2023-06-19T00:53:27;23.50;65.80
24326;DHT22;12448;45.532;5.290;2023-06-19T00:55:55;23.50;65.80
24326;DHT22;12448;45.532;5.290;2023-06-19T00:58:21;23.50;65.80
24326;DHT22;12448;45.532;5.290;2023-06-19T01:00:48;23.50;65.80
24326;DHT22;12448;45.532;5.290;2023-06-19T01:03:15;23.50;66.10
24326;DHT22;12448;45.532;5.290;2023-06-19T01:05:40;23.50;66.10
24326;DHT22;12448;45.532;5.290;2023-06-19T01:11:00;23.50;66.20
24326;DHT22;12448;45.532;5.290;2023-06-19T01:16:06;23.40;66.40
24326;DHT22;12448;45.532;5.290;2023-06-19T01:18:32;23.40;66.40
24326;DHT22;12448;45.532;5.290;2023-06-19T01:21:18;23.40;66.50
24326;DHT22;12448;45.532;5.290;2023-06-19T01:23:44;23.40;66.70
24326;DHT22;12448;45.532;5.290;2023-06-19T01:26:11;23.40;66.80
24326;DHT22;12448;45.532;5.290;2023-06-19T01:28:41;23.40;67.00
24326;DHT22;12448;45.532;5.290;2023-06-19T01:31:20;23.30;67.10
24326;DHT22;12448;45.532;5.290;2023-06-19T01:33:47;23.30;67.20
24326;DHT22;12448;45.532;5.290;2023-06-19T01:36:16;23.30;67.30
24326;DHT22;12448;45.532;5.290;2023-06-19T01:38:44;23.30;67.40
24326;DHT22;12448;45.532;5.290;2023-06-19T01:41:11;23.20;67.40
24326;DHT22;12448;45.532;5.290;2023-06-19T01:43:38;23.20;67.40
24326;DHT22;12448;45.532;5.290;2023-06-19T01:46:04;23.20;67.30
24326;DHT22;12448;45.532;5.290;2023-06-19T01:48:30;23.20;67.30
24326;DHT22;12448;45.532;5.290;2023-06-19T01:50:55;23.20;67.20
24326;DHT22;12448;45.532;5.290;2023-06-19T01:53:21;23.20;67.80
24326;DHT22;12448;45.532;5.290;2023-06-19T01:55:47;23.20;67.10
24326;DHT22;12448;45.532;5.290;2023-06-19T01:58:12;23.10;67.00
24326;DHT22;12448;45.532;5.290;2023-06-19T02:00:38;23.10;66.80
24326;DHT22;12448;45.532;5.290;2023-06-19T02:03:04;23.10;66.60
24326;DHT22;12448;45.532;5.290;2023-06-19T02:05:30;23.10;66.60
24326;DHT22;12448;45.532;5.290;2023-06-19T02:07:57;23.10;66.60
24326;DHT22;12448;45.532;5.290;2023-06-19T02:10:23;23.00;66.30
24326;DHT22;12448;45.532;5.290;2023-06-19T02:12:48;23.10;66.40
24326;DHT22;12448;45.532;5.290;2023-06-19T02:15:14;23.00;66.10
24326;DHT22;12448;45.532;5.290;2023-06-19T02:17:40;23.00;66.20
24326;DHT22;12448;45.532;5.290;2023-06-19T02:20:08;23.00;66.20
24326;DHT22;12448;45.532;5.290;2023-06-19T02:22:35;23.00;66.20
24326;DHT22;12448;45.532;5.290;2023-06-19T02:25:00;23.00;66.20
24326;DHT22;12448;45.532;5.290;2023-06-19T02:27:26;23.00;66.40
24326;DHT22;12448;45.532;5.290;2023-06-19T02:29:52;23.00;66.30
24326;DHT22;12448;45.532;5.290;2023-06-19T02:32:17;23.00;66.20
24326;DHT22;12448;45.532;5.290;2023-06-19T02:34:43;23.00;66.20
24326;DHT22;12448;45.532;5.290;2023-06-19T02:37:08;23.00;66.30
24326;DHT22;12448;45.532;5.290;2023-06-19T02:39:34;22.90;66.30
24326;DHT22;12448;45.532;5.290;2023-06-19T02:41:59;23.00;66.20
24326;DHT22;12448;45.532;5.290;2023-06-19T02:44:25;22.90;66.20
24326;DHT22;12448;45.532;5.290;2023-06-19T02:46:51;22.90;66.20
24326;DHT22;12448;45.532;5.290;2023-06-19T02:49:16;22.90;66.10
24326;DHT22;12448;45.532;5.290;2023-06-19T02:51:42;22.90;66.10
24326;DHT22;12448;45.532;5.290;2023-06-19T02:54:07;22.90;66.10
24326;DHT22;12448;45.532;5.290;2023-06-19T02:56:33;22.90;66.10
24326;DHT22;12448;45.532;5.290;2023-06-19T02:58:59;22.80;66.00
24326;DHT22;12448;45.532;5.290;2023-06-19T03:01:24;22.80;66.00
24326;DHT22;12448;45.532;5.290;2023-06-19T03:03:50;22.80;66.00
24326;DHT22;12448;45.532;5.290;2023-06-19T03:06:17;22.80;66.00
24326;DHT22;12448;45.532;5.290;2023-06-19T03:08:43;22.80;65.90
24326;DHT22;12448;45.532;5.290;2023-06-19T03:11:09;22.80;65.90
24326;DHT22;12448;45.532;5.290;2023-06-19T03:13:48;22.80;65.80
24326;DHT22;12448;45.532;5.290;2023-06-19T03:16:13;22.70;65.80
24326;DHT22;12448;45.532;5.290;2023-06-19T03:18:43;22.70;65.80
24326;DHT22;12448;45.532;5.290;2023-06-19T03:21:14;22.70;65.70
24326;DHT22;12448;45.532;5.290;2023-06-19T03:23:40;22.70;65.60
24326;DHT22;12448;45.532;5.290;2023-06-19T03:26:09;22.60;66.40
24326;DHT22;12448;45.532;5.290;2023-06-19T03:28:36;22.60;65.50
24326;DHT22;12448;45.532;5.290;2023-06-19T03:31:02;22.60;65.50
24326;DHT22;12448;45.532;5.290;2023-06-19T03:33:27;22.60;65.40
24326;DHT22;12448;45.532;5.290;2023-06-19T03:35:53;22.60;65.30
24326;DHT22;12448;45.532;5.290;2023-06-19T03:38:18;22.60;65.10
24326;DHT22;12448;45.532;5.290;2023-06-19T03:40:44;22.60;65.10
24326;DHT22;12448;45.532;5.290;2023-06-19T03:43:11;22.60;65.20
24326;DHT22;12448;45.532;5.290;2023-06-19T03:45:36;22.60;65.20
24326;DHT22;12448;45.532;5.290;2023-06-19T03:48:02;22.60;65.20
24326;DHT22;12448;45.532;5.290;2023-06-19T03:50:28;22.60;65.30
24326;DHT22;12448;45.532;5.290;2023-06-19T03:52:54;22.50;65.30
24326;DHT22;12448;45.532;5.290;2023-06-19T03:55:19;22.60;65.50
24326;DHT22;12448;45.532;5.290;2023-06-19T03:57:45;22.60;65.50
24326;DHT22;12448;45.532;5.290;2023-06-19T04:00:11;22.60;65.60
24326;DHT22;12448;45.532;5.290;2023-06-19T04:02:38;22.60;65.70
24326;DHT22;12448;45.532;5.290;2023-06-19T04:05:05;22.60;65.70
24326;DHT22;12448;45.532;5.290;2023-06-19T04:07:31;22.60;66.00
24326;DHT22;12448;45.532;5.290;2023-06-19T04:09:57;22.60;66.00
24326;DHT22;12448;45.532;5.290;2023-06-19T04:12:23;22.60;65.90
24326;DHT22;12448;45.532;5.290;2023-06-19T04:14:49;22.50;66.10
24326;DHT22;12448;45.532;5.290;2023-06-19T04:17:14;22.60;66.20
24326;DHT22;12448;45.532;5.290;2023-06-19T04:19:41;22.50;66.40
24326;DHT22;12448;45.532;5.290;2023-06-19T04:22:07;22.50;67.40
24326;DHT22;12448;45.532;5.290;2023-06-19T04:24:33;22.50;67.10
24326;DHT22;12448;45.532;5.290;2023-06-19T04:26:58;22.50;67.00
24326;DHT22;12448;45.532;5.290;2023-06-19T04:29:24;22.50;67.10
24326;DHT22;12448;45.532;5.290;2023-06-19T04:31:49;22.50;67.10
24326;DHT22;12448;45.532;5.290;2023-06-19T04:34:16;22.50;67.20
24326;DHT22;12448;45.532;5.290;2023-06-19T04:36:42;22.50;67.30
24326;DHT22;12448;45.532;5.290;2023-06-19T04:39:09;22.50;67.20
24326;DHT22;12448;45.532;5.290;2023-06-19T04:41:35;22.50;67.20
24326;DHT22;12448;45.532;5.290;2023-06-19T04:44:07;22.50;67.40
24326;DHT22;12448;45.532;5.290;2023-06-19T04:46:33;22.50;67.60
24326;DHT22;12448;45.532;5.290;2023-06-19T04:48:59;22.50;67.40
24326;DHT22;12448;45.532;5.290;2023-06-19T04:51:25;22.50;67.50
24326;DHT22;12448;45.532;5.290;2023-06-19T04:53:52;22.60;67.30
24326;DHT22;12448;45.532;5.290;2023-06-19T04:56:17;22.50;67.30
24326;DHT22;12448;45.532;5.290;2023-06-19T04:58:43;22.50;67.60
24326;DHT22;12448;45.532;5.290;2023-06-19T05:01:13;22.50;68.00
24326;DHT22;12448;45.532;5.290;2023-06-19T05:03:40;22.50;68.60
24326;DHT22;12448;45.532;5.290;2023-06-19T05:06:05;22.50;69.30
24326;DHT22;12448;45.532;5.290;2023-06-19T05:08:31;22.50;69.30
24326;DHT22;12448;45.532;5.290;2023-06-19T05:10:56;22.50;69.50
24326;DHT22;12448;45.532;5.290;2023-06-19T05:13:23;22.50;69.50
24326;DHT22;12448;45.532;5.290;2023-06-19T05:15:49;22.50;69.20
24326;DHT22;12448;45.532;5.290;2023-06-19T05:18:18;22.50;68.90
24326;DHT22;12448;45.532;5.290;2023-06-19T05:20:44;22.50;68.70
24326;DHT22;12448;45.532;5.290;2023-06-19T05:23:10;22.50;68.60
24326;DHT22;12448;45.532;5.290;2023-06-19T05:25:36;22.50;68.60
24326;DHT22;12448;45.532;5.290;2023-06-19T05:28:01;22.60;68.70
24326;DHT22;12448;45.532;5.290;2023-06-19T05:30:27;22.50;68.80
24326;DHT22;12448;45.532;5.290;2023-06-19T05:32:53;22.60;68.90
24326;DHT22;12448;45.532;5.290;2023-06-19T05:35:18;22.50;68.90
24326;DHT22;12448;45.532;5.290;2023-06-19T05:37:44;22.50;69.10
24326;DHT22;12448;45.532;5.290;2023-06-19T05:40:10;22.50;69.40
24326;DHT22;12448;45.532;5.290;2023-06-19T05:42:36;22.50;69.20
24326;DHT22;12448;45.532;5.290;2023-06-19T05:45:03;22.50;69.50
24326;DHT22;12448;45.532;5.290;2023-06-19T05:47:29;22.50;69.40
24326;DHT22;12448;45.532;5.290;2023-06-19T05:49:56;22.50;69.40
24326;DHT22;12448;45.532;5.290;2023-06-19T05:52:22;22.50;69.50
24326;DHT22;12448;45.532;5.290;2023-06-19T05:54:48;22.50;69.60
24326;DHT22;12448;45.532;5.290;2023-06-19T05:57:14;22.50;69.90
24326;DHT22;12448;45.532;5.290;2023-06-19T05:59:41;22.40;70.00
24326;DHT22;12448;45.532;5.290;2023-06-19T06:02:07;22.40;69.90
24326;DHT22;12448;45.532;5.290;2023-06-19T06:04:33;22.40;70.00
24326;DHT22;12448;45.532;5.290;2023-06-19T06:07:00;22.40;70.00
24326;DHT22;12448;45.532;5.290;2023-06-19T06:09:25;22.40;70.40
24326;DHT22;12448;45.532;5.290;2023-06-19T06:11:52;22.40;70.60
24326;DHT22;12448;45.532;5.290;2023-06-19T06:14:18;22.40;70.70
24326;DHT22;12448;45.532;5.290;2023-06-19T06:16:43;22.40;71.20
24326;DHT22;12448;45.532;5.290;2023-06-19T06:19:09;22.40;71.00
24326;DHT22;12448;45.532;5.290;2023-06-19T06:21:34;22.40;70.60
24326;DHT22;12448;45.532;5.290;2023-06-19T06:24:00;22.40;70.50
24326;DHT22;12448;45.532;5.290;2023-06-19T06:26:26;22.40;70.30
24326;DHT22;12448;45.532;5.290;2023-06-19T06:28:53;22.40;70.50
24326;DHT22;12448;45.532;5.290;2023-06-19T06:31:19;22.40;70.30
24326;DHT22;12448;45.532;5.290;2023-06-19T06:33:44;22.40;70.30
24326;DHT22;12448;45.532;5.290;2023-06-19T06:36:10;22.40;70.30
24326;DHT22;12448;45.532;5.290;2023-06-19T06:38:35;22.50;70.30
24326;DHT22;12448;45.532;5.290;2023-06-19T06:41:02;22.50;70.10
24326;DHT22;12448;45.532;5.290;2023-06-19T06:43:27;22.50;70.20
24326;DHT22;12448;45.532;5.290;2023-06-19T06:45:53;22.40;70.00
24326;DHT22;12448;45.532;5.290;2023-06-19T06:48:19;22.40;70.00
24326;DHT22;12448;45.532;5.290;2023-06-19T06:50:44;22.40;70.40
24326;DHT22;12448;45.532;5.290;2023-06-19T06:53:10;22.40;70.60
24326;DHT22;12448;45.532;5.290;2023-06-19T06:55:36;22.50;71.00
24326;DHT22;12448;45.532;5.290;2023-06-19T06:58:01;22.50;71.20
24326;DHT22;12448;45.532;5.290;2023-06-19T07:00:27;22.50;71.20
24326;DHT22;12448;45.532;5.290;2023-06-19T07:02:53;22.50;71.70
24326;DHT22;12448;45.532;5.290;2023-06-19T07:05:18;22.50;72.40
24326;DHT22;12448;45.532;5.290;2023-06-19T07:07:44;22.50;72.80
24326;DHT22;12448;45.532;5.290;2023-06-19T07:10:10;22.50;73.10
24326;DHT22;12448;45.532;5.290;2023-06-19T07:12:43;22.50;73.40
24326;DHT22;12448;45.532;5.290;2023-06-19T07:15:09;22.50;73.50
24326;DHT22;12448;45.532;5.290;2023-06-19T07:17:35;22.50;73.40
24326;DHT22;12448;45.532;5.290;2023-06-19T07:20:00;22.50;73.20
24326;DHT22;12448;45.532;5.290;2023-06-19T07:22:26;22.50;73.10
24326;DHT22;12448;45.532;5.290;2023-06-19T07:24:51;22.50;72.70
24326;DHT22;12448;45.532;5.290;2023-06-19T07:27:17;22.60;72.60
24326;DHT22;12448;45.532;5.290;2023-06-19T07:29:44;22.60;72.80
24326;DHT22;12448;45.532;5.290;2023-06-19T07:32:09;22.50;73.30
24326;DHT22;12448;45.532;5.290;2023-06-19T07:34:36;22.60;73.40
24326;DHT22;12448;45.532;5.290;2023-06-19T07:37:01;22.50;73.40
24326;DHT22;12448;45.532;5.290;2023-06-19T07:39:27;22.50;73.30
24326;DHT22;12448;45.532;5.290;2023-06-19T07:41:52;22.50;72.90
24326;DHT22;12448;45.532;5.290;2023-06-19T07:44:18;22.50;72.90
24326;DHT22;12448;45.532;5.290;2023-06-19T07:46:46;22.50;73.40
24326;DHT22;12448;45.532;5.290;2023-06-19T07:49:11;22.50;73.70
24326;DHT22;12448;45.532;5.290;2023-06-19T07:51:37;22.50;74.00
24326;DHT22;12448;45.532;5.290;2023-06-19T07:54:03;22.60;73.80
24326;DHT22;12448;45.532;5.290;2023-06-19T07:56:28;22.60;73.90
24326;DHT22;12448;45.532;5.290;2023-06-19T07:58:54;22.60;73.80
24326;DHT22;12448;45.532;5.290;2023-06-19T08:01:20;22.60;73.90
24326;DHT22;12448;45.532;5.290;2023-06-19T08:03:45;22.60;73.80
24326;DHT22;12448;45.532;5.290;2023-06-19T08:06:11;22.60;73.70
24326;DHT22;12448;45.532;5.290;2023-06-19T08:08:37;22.60;73.60
24326;DHT22;12448;45.532;5.290;2023-06-19T08:11:03;22.70;73.30
24326;DHT22;12448;45.532;5.290;2023-06-19T08:13:28;22.70;73.20
24326;DHT22;12448;45.532;5.290;2023-06-19T08:15:54;22.70;73.10
24326;DHT22;12448;45.532;5.290;2023-06-19T08:18:19;22.70;73.00
24326;DHT22;12448;45.532;5.290;2023-06-19T08:20:45;22.80;72.80
24326;DHT22;12448;45.532;5.290;2023-06-19T08:23:11;22.80;72.60
24326;DHT22;12448;45.532;5.290;2023-06-19T08:25:36;22.80;72.40
24326;DHT22;12448;45.532;5.290;2023-06-19T08:28:02;22.90;72.50
24326;DHT22;12448;45.532;5.290;2023-06-19T08:30:27;22.90;72.00
24326;DHT22;12448;45.532;5.290;2023-06-19T08:32:53;22.90;71.90
24326;DHT22;12448;45.532;5.290;2023-06-19T08:35:19;22.90;71.70
24326;DHT22;12448;45.532;5.290;2023-06-19T08:37:44;22.80;72.00
24326;DHT22;12448;45.532;5.290;2023-06-19T08:40:11;22.90;72.20
24326;DHT22;12448;45.532;5.290;2023-06-19T08:42:37;22.90;72.40
24326;DHT22;12448;45.532;5.290;2023-06-19T08:45:06;22.90;72.50
24326;DHT22;12448;45.532;5.290;2023-06-19T08:47:32;22.90;72.20
24326;DHT22;12448;45.532;5.290;2023-06-19T08:49:59;23.00;72.10
24326;DHT22;12448;45.532;5.290;2023-06-19T08:52:25;23.00;72.20
24326;DHT22;12448;45.532;5.290;2023-06-19T08:54:50;23.00;72.20
24326;DHT22;12448;45.532;5.290;2023-06-19T08:57:16;23.10;72.20
24326;DHT22;12448;45.532;5.290;2023-06-19T08:59:49;23.20;71.90
24326;DHT22;12448;45.532;5.290;2023-06-19T09:02:15;23.30;71.50
24326;DHT22;12448;45.532;5.290;2023-06-19T09:04:40;23.30;71.50
24326;DHT22;12448;45.532;5.290;2023-06-19T09:07:08;23.50;71.10
24326;DHT22;12448;45.532;5.290;2023-06-19T09:09:33;23.50;70.20
24326;DHT22;12448;45.532;5.290;2023-06-19T09:14:36;23.50;69.20
24326;DHT22;12448;45.532;5.290;2023-06-19T09:17:03;23.60;69.20
24326;DHT22;12448;45.532;5.290;2023-06-19T09:19:29;23.70;68.20
24326;DHT22;12448;45.532;5.290;2023-06-19T09:22:04;23.70;68.20
24326;DHT22;12448;45.532;5.290;2023-06-19T09:24:40;23.80;68.60
24326;DHT22;12448;45.532;5.290;2023-06-19T09:27:10;23.80;68.10
24326;DHT22;12448;45.532;5.290;2023-06-19T09:29:40;23.90;68.50
24326;DHT22;12448;45.532;5.290;2023-06-19T09:32:20;23.90;68.40
24326;DHT22;12448;45.532;5.290;2023-06-19T09:34:46;24.00;68.50
24326;DHT22;12448;45.532;5.290;2023-06-19T09:37:13;24.00;68.60
24326;DHT22;12448;45.532;5.290;2023-06-19T09:39:40;24.10;68.40
24326;DHT22;12448;45.532;5.290;2023-06-19T09:42:09;24.10;68.20
24326;DHT22;12448;45.532;5.290;2023-06-19T09:44:47;24.20;68.40
24326;DHT22;12448;45.532;5.290;2023-06-19T09:47:22;24.20;68.30
24326;DHT22;12448;45.532;5.290;2023-06-19T09:49:54;24.30;68.10
24326;DHT22;12448;45.532;5.290;2023-06-19T09:52:21;24.30;67.90
24326;DHT22;12448;45.532;5.290;2023-06-19T09:54:50;24.40;67.50
24326;DHT22;12448;45.532;5.290;2023-06-19T09:57:15;24.60;67.50
24326;DHT22;12448;45.532;5.290;2023-06-19T09:59:42;24.70;66.80
24326;DHT22;12448;45.532;5.290;2023-06-19T10:02:09;24.80;66.60
24326;DHT22;12448;45.532;5.290;2023-06-19T10:04:51;24.90;67.10
24326;DHT22;12448;45.532;5.290;2023-06-19T10:07:22;24.90;67.20
24326;DHT22;12448;45.532;5.290;2023-06-19T10:09:58;25.10;66.50
24326;DHT22;12448;45.532;5.290;2023-06-19T10:15:19;25.30;64.80
24326;DHT22;12448;45.532;5.290;2023-06-19T10:17:50;25.30;64.50
24326;DHT22;12448;45.532;5.290;2023-06-19T10:25:35;25.60;60.50
24326;DHT22;12448;45.532;5.290;2023-06-19T10:28:01;25.60;61.20
24326;DHT22;12448;45.532;5.290;2023-06-19T10:30:28;25.60;61.00
24326;DHT22;12448;45.532;5.290;2023-06-19T10:32:55;25.50;61.40
24326;DHT22;12448;45.532;5.290;2023-06-19T10:35:21;25.50;62.30
24326;DHT22;12448;45.532;5.290;2023-06-19T10:37:47;25.60;62.00
24326;DHT22;12448;45.532;5.290;2023-06-19T10:40:13;25.60;61.60
24326;DHT22;12448;45.532;5.290;2023-06-19T10:42:39;25.60;61.20
24326;DHT22;12448;45.532;5.290;2023-06-19T10:45:10;25.70;60.70
24326;DHT22;12448;45.532;5.290;2023-06-19T10:47:38;25.80;59.80
24326;DHT22;12448;45.532;5.290;2023-06-19T10:50:09;25.90;59.60
24326;DHT22;12448;45.532;5.290;2023-06-19T10:52:35;25.90;59.30
24326;DHT22;12448;45.532;5.290;2023-06-19T10:55:00;26.00;59.20
24326;DHT22;12448;45.532;5.290;2023-06-19T10:57:29;26.10;59.90
24326;DHT22;12448;45.532;5.290;2023-06-19T10:59:55;26.20;59.80
24326;DHT22;12448;45.532;5.290;2023-06-19T11:02:22;26.30;59.30
24326;DHT22;12448;45.532;5.290;2023-06-19T11:04:48;26.40;60.50
24326;DHT22;12448;45.532;5.290;2023-06-19T11:07:14;26.40;59.60
24326;DHT22;12448;45.532;5.290;2023-06-19T11:09:40;26.60;59.60
24326;DHT22;12448;45.532;5.290;2023-06-19T11:12:06;26.60;58.50
24326;DHT22;12448;45.532;5.290;2023-06-19T11:14:33;26.70;57.80
24326;DHT22;12448;45.532;5.290;2023-06-19T11:17:05;26.70;57.80
24326;DHT22;12448;45.532;5.290;2023-06-19T11:19:32;26.70;57.70
24326;DHT22;12448;45.532;5.290;2023-06-19T11:22:02;26.80;57.40
24326;DHT22;12448;45.532;5.290;2023-06-19T11:24:29;26.80;57.60
24326;DHT22;12448;45.532;5.290;2023-06-19T11:26:56;26.80;58.30
24326;DHT22;12448;45.532;5.290;2023-06-19T11:29:25;26.90;58.30
24326;DHT22;12448;45.532;5.290;2023-06-19T11:32:05;26.90;58.20
24326;DHT22;12448;45.532;5.290;2023-06-19T11:34:35;27.10;57.50
24326;DHT22;12448;45.532;5.290;2023-06-19T11:37:12;27.10;58.00
24326;DHT22;12448;45.532;5.290;2023-06-19T11:39:38;27.20;58.30
24326;DHT22;12448;45.532;5.290;2023-06-19T11:42:05;27.20;57.80
24326;DHT22;12448;45.532;5.290;2023-06-19T11:44:31;27.30;58.40
24326;DHT22;12448;45.532;5.290;2023-06-19T11:46:57;27.40;57.80
24326;DHT22;12448;45.532;5.290;2023-06-19T11:49:24;27.50;56.80
24326;DHT22;12448;45.532;5.290;2023-06-19T11:51:50;27.50;57.20
24326;DHT22;12448;45.532;5.290;2023-06-19T11:54:16;27.50;56.60
24326;DHT22;12448;45.532;5.290;2023-06-19T11:56:43;27.70;56.70
24326;DHT22;12448;45.532;5.290;2023-06-19T11:59:09;27.70;55.50
24326;DHT22;12448;45.532;5.290;2023-06-19T12:01:37;27.80;55.30
24326;DHT22;12448;45.532;5.290;2023-06-19T12:04:03;27.80;54.90
24326;DHT22;12448;45.532;5.290;2023-06-19T12:06:30;27.90;55.20
24326;DHT22;12448;45.532;5.290;2023-06-19T12:08:56;27.90;55.00
24326;DHT22;12448;45.532;5.290;2023-06-19T12:11:22;28.00;54.00
24326;DHT22;12448;45.532;5.290;2023-06-19T12:13:48;28.00;53.90
24326;DHT22;12448;45.532;5.290;2023-06-19T12:16:14;28.10;54.40
24326;DHT22;12448;45.532;5.290;2023-06-19T12:18:43;28.20;53.50
24326;DHT22;12448;45.532;5.290;2023-06-19T12:21:09;28.20;53.50
24326;DHT22;12448;45.532;5.290;2023-06-19T12:23:35;28.20;54.20
24326;DHT22;12448;45.532;5.290;2023-06-19T12:26:00;28.40;54.00
24326;DHT22;12448;45.532;5.290;2023-06-19T12:28:26;28.40;53.40
24326;DHT22;12448;45.532;5.290;2023-06-19T12:30:53;28.50;53.30
24326;DHT22;12448;45.532;5.290;2023-06-19T12:33:19;28.50;52.70
24326;DHT22;12448;45.532;5.290;2023-06-19T12:35:46;28.60;52.90
24326;DHT22;12448;45.532;5.290;2023-06-19T12:38:16;28.60;53.40
24326;DHT22;12448;45.532;5.290;2023-06-19T12:40:57;28.70;53.70
24326;DHT22;12448;45.532;5.290;2023-06-19T12:43:23;28.70;53.30
24326;DHT22;12448;45.532;5.290;2023-06-19T12:45:51;28.80;53.00
24326;DHT22;12448;45.532;5.290;2023-06-19T12:48:20;28.80;53.80
24326;DHT22;12448;45.532;5.290;2023-06-19T12:50:49;28.90;54.20
24326;DHT22;12448;45.532;5.290;2023-06-19T12:54:31;29.00;53.40
24326;DHT22;12448;45.532;5.290;2023-06-19T12:59:57;29.10;54.40
24326;DHT22;12448;45.532;5.290;2023-06-19T13:02:35;29.20;54.20
24326;DHT22;12448;45.532;5.290;2023-06-19T13:05:13;29.30;54.50
24326;DHT22;12448;45.532;5.290;2023-06-19T13:07:42;29.30;54.50
24326;DHT22;12448;45.532;5.290;2023-06-19T13:13:31;29.40;53.00
24326;DHT22;12448;45.532;5.290;2023-06-19T13:16:12;29.20;53.60
24326;DHT22;12448;45.532;5.290;2023-06-19T13:18:44;29.10;53.80
24326;DHT22;12448;45.532;5.290;2023-06-19T13:21:34;28.90;54.30
24326;DHT22;12448;45.532;5.290;2023-06-19T13:27:40;28.60;55.00
24326;DHT22;12448;45.532;5.290;2023-06-19T13:30:12;28.50;55.50
24326;DHT22;12448;45.532;5.290;2023-06-19T13:32:41;28.30;56.00
24326;DHT22;12448;45.532;5.290;2023-06-19T13:35:08;28.30;56.00
24326;DHT22;12448;45.532;5.290;2023-06-19T13:37:49;28.50;56.60
24326;DHT22;12448;45.532;5.290;2023-06-19T13:40:15;28.60;56.70
24326;DHT22;12448;45.532;5.290;2023-06-19T13:42:41;28.60;56.80
24326;DHT22;12448;45.532;5.290;2023-06-19T13:45:10;28.80;57.10
24326;DHT22;12448;45.532;5.290;2023-06-19T13:47:36;28.90;56.60
24326;DHT22;12448;45.532;5.290;2023-06-19T13:50:07;29.10;56.20
24326;DHT22;12448;45.532;5.290;2023-06-19T13:52:46;29.30;56.00
24326;DHT22;12448;45.532;5.290;2023-06-19T13:55:26;29.40;55.10
24326;DHT22;12448;45.532;5.290;2023-06-19T13:57:58;29.50;55.00
24326;DHT22;12448;45.532;5.290;2023-06-19T14:00:39;29.50;54.30
24326;DHT22;12448;45.532;5.290;2023-06-19T14:03:10;29.60;54.00
24326;DHT22;12448;45.532;5.290;2023-06-19T14:05:58;29.70;53.50
24326;DHT22;12448;45.532;5.290;2023-06-19T14:08:33;29.70;53.00
24326;DHT22;12448;45.532;5.290;2023-06-19T14:11:07;29.70;51.40
24326;DHT22;12448;45.532;5.290;2023-06-19T14:13:33;29.70;51.40
24326;DHT22;12448;45.532;5.290;2023-06-19T14:15:59;29.60;51.30
24326;DHT22;12448;45.532;5.290;2023-06-19T14:18:34;29.70;51.20
24326;DHT22;12448;45.532;5.290;2023-06-19T14:21:17;29.60;51.50
24326;DHT22;12448;45.532;5.290;2023-06-19T14:24:08;29.50;51.70
24326;DHT22;12448;45.532;5.290;2023-06-19T14:33:27;29.50;52.90
24326;DHT22;12448;45.532;5.290;2023-06-19T14:36:47;29.40;52.50
24326;DHT22;12448;45.532;5.290;2023-06-19T14:39:23;29.30;52.40
24326;DHT22;12448;45.532;5.290;2023-06-19T14:41:55;29.20;51.80
24326;DHT22;12448;45.532;5.290;2023-06-19T14:45:06;29.00;52.30
24326;DHT22;12448;45.532;5.290;2023-06-19T14:47:31;29.00;52.70
24326;DHT22;12448;45.532;5.290;2023-06-19T14:50:06;29.10;52.40
24326;DHT22;12448;45.532;5.290;2023-06-19T14:52:41;29.30;52.80
24326;DHT22;12448;45.532;5.290;2023-06-19T15:09:11;30.00;51.10
24326;DHT22;12448;45.532;5.290;2023-06-19T15:11:48;30.00;51.10
24326;DHT22;12448;45.532;5.290;2023-06-19T15:18:54;30.10;51.10
24326;DHT22;12448;45.532;5.290;2023-06-19T15:32:19;30.20;51.80
24326;DHT22;12448;45.532;5.290;2023-06-19T15:38:09;30.00;52.50
24326;DHT22;12448;45.532;5.290;2023-06-19T15:40:56;29.80;53.00
24326;DHT22;12448;45.532;5.290;2023-06-19T15:43:28;29.70;52.80
24326;DHT22;12448;45.532;5.290;2023-06-19T15:45:55;29.60;52.70
24326;DHT22;12448;45.532;5.290;2023-06-19T15:51:50;29.40;52.80
24326;DHT22;12448;45.532;5.290;2023-06-19T15:54:57;29.30;53.20
24326;DHT22;12448;45.532;5.290;2023-06-19T15:57:29;29.20;52.90
24326;DHT22;12448;45.532;5.290;2023-06-19T16:00:03;29.10;53.20
24326;DHT22;12448;45.532;5.290;2023-06-19T16:02:36;29.10;53.50
24326;DHT22;12448;45.532;5.290;2023-06-19T16:08:45;29.10;54.00
24326;DHT22;12448;45.532;5.290;2023-06-19T16:14:23;28.90;54.60
24326;DHT22;12448;45.532;5.290;2023-06-19T16:16:57;28.80;54.40
24326;DHT22;12448;45.532;5.290;2023-06-19T16:19:29;28.70;54.20
24326;DHT22;12448;45.532;5.290;2023-06-19T16:21:58;28.70;54.60
24326;DHT22;12448;45.532;5.290;2023-06-19T16:24:27;28.60;54.70
24326;DHT22;12448;45.532;5.290;2023-06-19T16:26:53;28.60;55.00
24326;DHT22;12448;45.532;5.290;2023-06-19T16:29:21;28.50;55.20
24326;DHT22;12448;45.532;5.290;2023-06-19T16:31:50;28.40;54.90
24326;DHT22;12448;45.532;5.290;2023-06-19T16:34:18;28.40;55.10
24326;DHT22;12448;45.532;5.290;2023-06-19T16:36:44;28.30;55.10
24326;DHT22;12448;45.532;5.290;2023-06-19T16:39:10;28.20;55.40
24326;DHT22;12448;45.532;5.290;2023-06-19T16:41:38;28.10;55.60
24326;DHT22;12448;45.532;5.290;2023-06-19T16:44:04;28.10;55.60
24326;DHT22;12448;45.532;5.290;2023-06-19T16:46:34;28.10;55.80
24326;DHT22;12448;45.532;5.290;2023-06-19T16:49:00;28.10;55.90
24326;DHT22;12448;45.532;5.290;2023-06-19T16:51:25;28.00;56.10
24326;DHT22;12448;45.532;5.290;2023-06-19T16:53:51;28.00;56.30